createdAt,value
2022-12-03T00:02:18.873Z,60.50
2022-12-03T00:04:45.568Z,60.84
2022-12-03T00:07:12.112Z,60.46
2022-12-03T00:09:39.052Z,60.41
2022-12-03T00:12:05.999Z,60.43
2022-12-03T00:14:32.697Z,60.59
2022-12-03T00:16:59.804Z,60.64
2022-12-03T00:19:26.412Z,60.51
2022-12-03T00:21:53.073Z,60.49
2022-12-03T00:24:19.723Z,60.40
2022-12-03T00:26:46.534Z,60.67
2022-12-03T00:29:13.237Z,60.42
2022-12-03T00:31:39.979Z,60.34
2022-12-03T00:34:06.877Z,60.40
2022-12-03T00:36:33.722Z,60.30
2022-12-03T00:39:00.677Z,60.11
2022-12-03T00:41:27.353Z,60.69
2022-12-03T00:43:57.541Z,60.80
2022-12-03T00:46:25.367Z,60.82
2022-12-03T00:48:52.373Z,60.56
2022-12-03T00:51:19.755Z,60.41
2022-12-03T00:53:46.460Z,60.37
2022-12-03T00:56:13.259Z,60.55
2022-12-03T00:58:39.982Z,60.46
2022-12-03T01:01:06.754Z,60.46
2022-12-03T01:03:33.626Z,60.60
2022-12-03T01:06:00.445Z,60.55
2022-12-03T01:08:27.151Z,60.79
2022-12-03T01:10:53.734Z,60.63
2022-12-03T01:13:20.415Z,60.43
2022-12-03T01:15:47.136Z,60.02
2022-12-03T01:18:13.803Z,60.56
2022-12-03T01:20:40.833Z,60.41
2022-12-03T01:23:07.651Z,60.33
2022-12-03T01:25:34.524Z,60.19
2022-12-03T01:28:01.189Z,60.34
2022-12-03T01:30:27.927Z,60.35
2022-12-03T01:32:54.626Z,60.43
2022-12-03T01:35:21.272Z,60.61
2022-12-03T01:37:47.886Z,60.74
2022-12-03T01:40:20.094Z,60.79
2022-12-03T01:42:46.991Z,61.00
2022-12-03T01:45:22.481Z,60.61
2022-12-03T01:47:49.465Z,60.66
2022-12-03T01:50:33.199Z,60.10
2022-12-03T01:53:02.596Z,60.40
2022-12-03T01:55:29.724Z,60.38
2022-12-03T01:58:00.683Z,60.65
2022-12-03T02:00:28.597Z,60.48
2022-12-03T02:02:59.395Z,60.79
2022-12-03T02:05:28.901Z,60.76
2022-12-03T02:07:55.664Z,60.77
2022-12-03T02:10:42.606Z,60.77
2022-12-03T02:13:10.642Z,60.40
2022-12-03T02:15:39.997Z,60.31
2022-12-03T02:18:09.064Z,60.31
2022-12-03T02:20:47.042Z,60.40
2022-12-03T02:23:24.074Z,60.34
2022-12-03T02:25:50.768Z,60.76
2022-12-03T02:28:17.550Z,60.36
2022-12-03T02:30:44.340Z,60.51
2022-12-03T02:33:11.353Z,60.19
2022-12-03T02:35:38.796Z,60.50
2022-12-03T02:38:16.882Z,60.43
2022-12-03T02:40:47.217Z,60.63
2022-12-03T02:43:16.817Z,60.60
2022-12-03T02:45:46.264Z,60.63
2022-12-03T02:48:12.746Z,60.51
2022-12-03T02:50:43.525Z,60.43
2022-12-03T02:53:16.413Z,60.62
2022-12-03T02:55:43.337Z,60.65
2022-12-03T02:58:11.541Z,60.58
2022-12-03T03:00:39.323Z,60.76
2022-12-03T03:03:07.976Z,60.82
2022-12-03T03:05:38.281Z,60.89
2022-12-03T03:08:06.481Z,60.62
2022-12-03T03:10:35.265Z,60.74
2022-12-03T03:13:04.433Z,60.63
2022-12-03T03:15:31.019Z,60.75
2022-12-03T03:17:57.693Z,60.76
2022-12-03T03:20:24.212Z,60.78
2022-12-03T03:22:50.765Z,60.54
2022-12-03T03:25:21.063Z,60.56
2022-12-03T03:27:47.906Z,60.61
2022-12-03T03:30:16.338Z,60.82
2022-12-03T03:32:43.151Z,60.79
2022-12-03T03:35:11.608Z,60.93
2022-12-03T03:37:39.254Z,60.62
2022-12-03T03:40:07.144Z,60.78
2022-12-03T03:42:34.446Z,60.85
2022-12-03T03:45:01.332Z,60.57
2022-12-03T03:47:27.996Z,60.69
2022-12-03T03:49:54.870Z,60.94
2022-12-03T03:52:22.513Z,61.03
2022-12-03T03:54:49.396Z,60.84
2022-12-03T03:57:15.970Z,60.53
2022-12-03T03:59:43.028Z,60.98
2022-12-03T04:02:24.699Z,61.25
2022-12-03T04:04:52.111Z,61.42
2022-12-03T04:07:18.971Z,61.22
2022-12-03T04:09:45.810Z,60.96
2022-12-03T04:12:32.080Z,60.81
2022-12-03T04:14:59.221Z,60.95
2022-12-03T04:17:26.405Z,61.06
2022-12-03T04:19:52.944Z,61.26
2022-12-03T04:22:38.239Z,61.45
2022-12-03T04:25:26.427Z,61.03
2022-12-03T04:28:12.000Z,61.13
2022-12-03T04:30:39.249Z,60.91
2022-12-03T04:33:24.599Z,61.03
2022-12-03T04:35:51.210Z,61.03
2022-12-03T04:38:17.888Z,61.30
2022-12-03T04:41:03.310Z,61.07
2022-12-03T04:43:34.868Z,61.04
2022-12-03T04:46:02.769Z,60.95
2022-12-03T04:48:29.627Z,60.99
2022-12-03T04:50:56.241Z,60.76
2022-12-03T04:53:22.912Z,60.92
2022-12-03T04:55:49.545Z,61.04
2022-12-03T04:58:16.147Z,61.26
2022-12-03T05:00:42.768Z,61.39
2022-12-03T05:03:09.384Z,60.94
2022-12-03T05:05:36.145Z,61.21
2022-12-03T05:08:03.021Z,61.09
2022-12-03T05:10:29.586Z,61.22
2022-12-03T05:12:56.682Z,61.56
2022-12-03T05:15:23.245Z,61.15
2022-12-03T05:17:49.933Z,61.19
2022-12-03T05:20:35.526Z,61.32
2022-12-03T05:23:02.188Z,61.14
2022-12-03T05:25:28.850Z,61.20
2022-12-03T05:27:55.541Z,61.09
2022-12-03T05:30:22.572Z,61.13
2022-12-03T05:32:49.982Z,61.10
2022-12-03T05:35:16.874Z,60.95
2022-12-03T05:37:43.650Z,61.31
2022-12-03T05:40:11.130Z,61.37
2022-12-03T05:42:56.575Z,61.30
2022-12-03T05:45:30.118Z,61.97
2022-12-03T05:47:57.946Z,62.76
2022-12-03T05:50:27.879Z,61.99
2022-12-03T05:52:55.384Z,61.79
2022-12-03T05:55:22.460Z,61.47
2022-12-03T05:57:49.317Z,61.24
2022-12-03T06:00:19.415Z,61.42
2022-12-03T06:02:48.878Z,61.57
2022-12-03T06:05:17.072Z,61.70
2022-12-03T06:07:43.717Z,61.64
2022-12-03T06:10:12.796Z,61.62
2022-12-03T06:12:40.186Z,61.75
2022-12-03T06:15:08.591Z,61.45
2022-12-03T06:17:35.249Z,61.74
2022-12-03T06:20:01.999Z,61.81
2022-12-03T06:22:28.753Z,61.21
2022-12-03T06:24:55.690Z,61.54
2022-12-03T06:27:23.121Z,61.36
2022-12-03T06:29:49.861Z,61.52
2022-12-03T06:32:16.604Z,61.71
2022-12-03T06:34:43.408Z,61.58
2022-12-03T06:37:10.162Z,61.61
2022-12-03T06:39:36.727Z,61.28
2022-12-03T06:42:03.384Z,61.71
2022-12-03T06:44:30.008Z,61.67
2022-12-03T06:46:56.787Z,61.50
2022-12-03T06:49:23.491Z,61.52
2022-12-03T06:51:50.143Z,61.67
2022-12-03T06:54:17.089Z,61.43
2022-12-03T06:56:45.629Z,61.48
2022-12-03T06:59:12.726Z,61.72
2022-12-03T07:01:39.580Z,61.46
2022-12-03T07:04:06.253Z,61.45
2022-12-03T07:06:32.944Z,61.57
2022-12-03T07:08:59.736Z,61.31
2022-12-03T07:11:39.856Z,61.00
2022-12-03T07:14:08.310Z,61.23
2022-12-03T07:16:35.925Z,61.42
2022-12-03T07:19:04.214Z,61.55
2022-12-03T07:21:30.905Z,61.45
2022-12-03T07:23:57.508Z,61.41
2022-12-03T07:26:24.056Z,61.36
2022-12-03T07:28:50.688Z,61.32
2022-12-03T07:31:17.546Z,61.43
2022-12-03T07:33:44.661Z,61.67
2022-12-03T07:36:11.438Z,61.57
2022-12-03T07:38:38.737Z,61.05
2022-12-03T07:41:05.743Z,61.22
2022-12-03T07:43:32.684Z,61.16
2022-12-03T07:45:59.522Z,61.68
2022-12-03T07:48:27.198Z,61.63
2022-12-03T07:50:54.196Z,61.68
2022-12-03T07:53:21.114Z,61.55
2022-12-03T07:55:47.854Z,61.89
2022-12-03T07:58:14.658Z,61.64
2022-12-03T08:00:41.537Z,61.77
2022-12-03T08:03:08.454Z,61.60
2022-12-03T08:05:35.053Z,61.80
2022-12-03T08:08:01.980Z,62.91
2022-12-03T08:10:28.639Z,62.86
2022-12-03T08:12:58.135Z,62.88
2022-12-03T08:15:25.314Z,62.71
2022-12-03T08:17:55.949Z,62.63
2022-12-03T08:20:25.395Z,62.55
2022-12-03T08:22:53.421Z,62.63
2022-12-03T08:25:31.523Z,62.37
2022-12-03T08:28:11.116Z,61.94
2022-12-03T08:30:37.944Z,62.04
2022-12-03T08:33:16.508Z,61.82
2022-12-03T08:35:49.818Z,61.91
2022-12-03T08:38:16.856Z,62.02
2022-12-03T08:40:46.036Z,62.01
2022-12-03T08:43:27.100Z,61.81
2022-12-03T08:45:57.450Z,62.06
2022-12-03T08:48:28.727Z,61.27
2022-12-03T08:50:58.054Z,61.24
2022-12-03T08:53:35.837Z,61.09
2022-12-03T08:56:19.303Z,61.42
2022-12-03T08:58:53.681Z,61.64
2022-12-03T09:01:44.717Z,61.78
2022-12-03T09:04:21.714Z,61.64
2022-12-03T09:06:48.964Z,61.76
2022-12-03T09:09:16.195Z,61.76
2022-12-03T09:11:46.201Z,61.48
2022-12-03T09:14:18.291Z,61.21
2022-12-03T09:16:45.346Z,61.13
2022-12-03T09:19:12.139Z,61.04
2022-12-03T09:21:38.718Z,61.21
2022-12-03T09:24:05.660Z,61.07
2022-12-03T09:26:32.339Z,61.38
2022-12-03T09:28:58.912Z,61.60
2022-12-03T09:31:25.766Z,61.11
2022-12-03T09:33:52.505Z,61.13
2022-12-03T09:36:19.124Z,61.38
2022-12-03T09:38:47.902Z,61.12
2022-12-03T09:41:15.017Z,61.30
2022-12-03T09:46:29.810Z,61.41
2022-12-03T09:48:56.832Z,61.52
2022-12-03T09:51:27.464Z,61.32
2022-12-03T09:53:54.132Z,61.30
2022-12-03T09:56:23.502Z,61.48
2022-12-03T09:58:50.630Z,61.48
2022-12-03T10:01:18.044Z,61.30
2022-12-03T10:03:49.150Z,61.39
2022-12-03T10:06:24.479Z,61.36
2022-12-03T10:08:54.504Z,61.08
2022-12-03T10:11:24.104Z,61.16
2022-12-03T10:13:54.076Z,60.79
2022-12-03T10:16:21.288Z,61.33
2022-12-03T10:18:54.536Z,61.35
2022-12-03T10:21:29.678Z,61.62
2022-12-03T10:24:32.528Z,61.37
2022-12-03T10:27:02.407Z,61.21
2022-12-03T10:29:35.016Z,61.49
2022-12-03T10:32:07.511Z,61.31
2022-12-03T10:34:39.511Z,61.33
2022-12-03T10:37:20.332Z,61.52
2022-12-03T10:39:56.043Z,61.35
2022-12-03T10:42:24.219Z,61.51
2022-12-03T10:45:20.133Z,61.32
2022-12-03T10:48:11.578Z,61.35
2022-12-03T10:50:48.652Z,61.17
2022-12-03T10:53:16.342Z,61.27
2022-12-03T10:55:45.463Z,61.47
2022-12-03T10:58:21.648Z,61.21
2022-12-03T11:00:49.987Z,61.25
2022-12-03T11:03:31.034Z,61.39
2022-12-03T11:06:00.637Z,61.64
2022-12-03T11:08:30.822Z,61.42
2022-12-03T11:11:05.994Z,61.39
2022-12-03T11:13:32.845Z,61.56
2022-12-03T11:16:04.546Z,61.27
2022-12-03T11:18:37.677Z,61.38
2022-12-03T11:21:06.450Z,61.53
2022-12-03T11:23:45.495Z,61.34
2022-12-03T11:26:36.112Z,61.50
2022-12-03T11:29:03.561Z,61.51
2022-12-03T11:31:44.189Z,61.11
2022-12-03T11:34:19.847Z,61.54
2022-12-03T11:37:16.361Z,61.39
2022-12-03T11:39:52.677Z,61.30
2022-12-03T11:42:28.627Z,61.02
2022-12-03T11:45:04.057Z,61.30
2022-12-03T11:47:38.703Z,60.87
2022-12-03T11:50:23.825Z,60.87
2022-12-03T11:52:59.981Z,61.15
2022-12-03T11:56:06.005Z,61.60
2022-12-03T11:58:33.706Z,61.48
2022-12-03T12:01:02.904Z,61.58
2022-12-03T12:03:37.102Z,61.41
2022-12-03T12:06:08.864Z,61.49
2022-12-03T12:08:38.132Z,61.60
2022-12-03T12:11:17.010Z,61.47
2022-12-03T12:13:43.609Z,61.41
2022-12-03T12:16:11.538Z,61.34
2022-12-03T12:18:44.093Z,61.24
2022-12-03T12:21:42.026Z,61.43
2022-12-03T12:24:53.848Z,61.29
2022-12-03T12:27:30.892Z,61.45
2022-12-03T12:30:00.204Z,61.51
2022-12-03T12:32:45.496Z,61.55
2022-12-03T12:35:24.028Z,61.70
2022-12-03T12:38:00.250Z,61.30
2022-12-03T12:40:30.519Z,61.33
2022-12-03T12:43:10.024Z,61.47
2022-12-03T12:45:42.000Z,61.23
2022-12-03T12:48:11.321Z,61.20
2022-12-03T12:50:38.536Z,61.19
2022-12-03T12:53:11.185Z,61.50
2022-12-03T12:55:41.330Z,61.21
2022-12-03T12:58:14.886Z,61.29
2022-12-03T13:00:42.626Z,61.42
2022-12-03T13:03:12.736Z,61.15
2022-12-03T13:05:42.664Z,61.28
2022-12-03T13:08:37.597Z,61.32
2022-12-03T13:11:04.855Z,61.25
2022-12-03T13:13:43.671Z,61.39
2022-12-03T13:16:26.390Z,61.26
2022-12-03T13:18:56.997Z,61.29
2022-12-03T13:21:44.534Z,61.37
2022-12-03T13:24:32.585Z,61.21
2022-12-03T13:27:05.025Z,61.07
2022-12-03T13:29:32.209Z,60.85
2022-12-03T13:32:01.707Z,60.79
2022-12-03T13:34:33.931Z,60.99
2022-12-03T13:37:12.392Z,60.83
2022-12-03T13:39:45.564Z,61.03
2022-12-03T13:42:46.454Z,61.17
2022-12-03T13:45:15.937Z,60.82
2022-12-03T13:47:47.486Z,60.99
2022-12-03T13:50:33.304Z,60.18
2022-12-03T13:53:15.693Z,60.10
2022-12-03T13:55:47.555Z,60.82
2022-12-03T13:58:14.300Z,60.95
2022-12-03T14:00:40.997Z,61.42
2022-12-03T14:03:07.650Z,61.26
2022-12-03T14:05:34.490Z,61.25
2022-12-03T14:08:04.857Z,61.14
2022-12-03T14:10:32.035Z,61.02
2022-12-03T14:12:58.889Z,60.70
2022-12-03T14:15:26.443Z,61.23
2022-12-03T14:17:53.055Z,61.20
2022-12-03T14:20:19.927Z,61.16
2022-12-03T14:22:46.682Z,61.20
2022-12-03T14:25:15.028Z,61.50
2022-12-03T14:27:41.659Z,61.19
2022-12-03T14:30:09.213Z,61.66
2022-12-03T14:32:36.059Z,61.74
2022-12-03T14:35:08.134Z,61.57
2022-12-03T14:37:36.579Z,61.40
2022-12-03T14:40:03.917Z,61.60
2022-12-03T14:42:30.561Z,61.56
2022-12-03T14:44:57.121Z,61.63
2022-12-03T14:47:23.809Z,61.34
2022-12-03T14:49:51.930Z,61.49
2022-12-03T14:52:19.316Z,61.63
2022-12-03T14:54:46.016Z,61.64
2022-12-03T14:57:13.785Z,61.37
2022-12-03T14:59:41.566Z,61.64
2022-12-03T15:02:09.242Z,61.66
2022-12-03T15:04:37.216Z,61.38
2022-12-03T15:07:04.543Z,61.36
2022-12-03T15:09:31.072Z,61.33
2022-12-03T15:11:57.768Z,61.42
2022-12-03T15:14:24.432Z,61.50
2022-12-03T15:16:51.209Z,61.23
2022-12-03T15:19:18.088Z,61.32
2022-12-03T15:21:45.579Z,61.28
2022-12-03T15:24:12.451Z,61.16
2022-12-03T15:26:39.213Z,60.36
2022-12-03T15:29:05.945Z,59.30
2022-12-03T15:31:32.682Z,59.07
2022-12-03T15:33:59.320Z,58.60
2022-12-03T15:36:25.964Z,58.14
2022-12-03T15:38:52.685Z,58.16
2022-12-03T15:41:24.468Z,58.03
2022-12-03T15:43:52.561Z,57.78
2022-12-03T15:46:20.297Z,57.68
2022-12-03T15:48:47.389Z,57.18
2022-12-03T15:51:14.426Z,57.18
2022-12-03T15:53:41.291Z,56.84
2022-12-03T15:56:08.503Z,57.23
2022-12-03T15:58:35.060Z,58.21
2022-12-03T16:01:01.935Z,59.24
2022-12-03T16:03:28.862Z,59.56
2022-12-03T16:05:55.815Z,60.02
2022-12-03T16:08:22.914Z,60.41
2022-12-03T16:10:49.891Z,60.35
2022-12-03T16:13:16.719Z,60.17
2022-12-03T16:15:44.109Z,60.41
2022-12-03T16:18:11.022Z,60.15
2022-12-03T16:20:39.329Z,60.45
2022-12-03T16:23:06.257Z,60.23
2022-12-03T16:25:33.070Z,60.73
2022-12-03T16:27:59.885Z,60.42
2022-12-03T16:30:26.826Z,60.99
2022-12-03T16:32:53.731Z,61.17
2022-12-03T16:35:20.992Z,60.68
2022-12-03T16:37:47.585Z,60.82
2022-12-03T16:40:14.462Z,60.95
2022-12-03T16:42:41.330Z,60.88
2022-12-03T16:45:09.543Z,60.66
2022-12-03T16:47:36.679Z,60.68
2022-12-03T16:50:07.513Z,60.53
2022-12-03T16:52:35.209Z,60.93
2022-12-03T16:55:02.108Z,60.82
2022-12-03T16:57:33.494Z,60.71
2022-12-03T17:00:01.027Z,60.66
2022-12-03T17:02:28.128Z,60.66
2022-12-03T17:04:55.059Z,60.75
2022-12-03T17:07:21.708Z,60.81
2022-12-03T17:09:48.757Z,60.75
2022-12-03T17:12:15.524Z,60.84
2022-12-03T17:14:42.124Z,60.87
2022-12-03T17:17:08.902Z,59.73
2022-12-03T17:19:35.812Z,58.80
2022-12-03T17:22:02.630Z,58.37
2022-12-03T17:24:29.399Z,57.74
2022-12-03T17:26:56.187Z,57.84
2022-12-03T17:29:22.741Z,57.44
2022-12-03T17:31:49.512Z,57.38
2022-12-03T17:34:16.276Z,57.06
2022-12-03T17:36:42.896Z,56.81
2022-12-03T17:39:09.516Z,56.90
2022-12-03T17:41:36.388Z,57.10
2022-12-03T17:44:09.702Z,56.80
2022-12-03T17:46:37.628Z,56.73
2022-12-03T17:49:04.444Z,56.53
2022-12-03T17:51:31.167Z,56.44
2022-12-03T17:53:57.911Z,56.04
2022-12-03T17:56:24.747Z,56.16
2022-12-03T17:58:51.510Z,55.96
2022-12-03T18:01:18.134Z,56.15
2022-12-03T18:03:44.834Z,56.71
2022-12-03T18:06:11.506Z,57.74
2022-12-03T18:08:38.076Z,58.50
2022-12-03T18:11:05.044Z,58.90
2022-12-03T18:13:31.797Z,59.08
2022-12-03T18:15:58.617Z,59.23
2022-12-03T18:18:25.354Z,59.24
2022-12-03T18:20:53.607Z,58.83
2022-12-03T18:23:20.592Z,59.49
2022-12-03T18:25:47.356Z,59.74
2022-12-03T18:28:14.133Z,59.68
2022-12-03T18:30:40.931Z,59.71
2022-12-03T18:33:07.732Z,59.66
2022-12-03T18:35:34.381Z,59.77
2022-12-03T18:38:01.223Z,59.56
2022-12-03T18:40:27.969Z,59.86
2022-12-03T18:42:56.615Z,60.08
2022-12-03T18:45:23.352Z,60.02
2022-12-03T18:47:50.221Z,60.19
2022-12-03T18:50:17.255Z,60.06
2022-12-03T18:52:44.046Z,59.77
2022-12-03T18:55:18.610Z,60.09
2022-12-03T18:57:45.760Z,59.98
2022-12-03T19:00:13.868Z,60.20
2022-12-03T19:05:28.173Z,60.41
2022-12-03T19:07:58.040Z,60.19
2022-12-03T19:10:25.223Z,60.33
2022-12-03T19:12:51.930Z,60.13
2022-12-03T19:15:18.889Z,60.01
2022-12-03T19:17:49.746Z,59.91
2022-12-03T19:20:16.408Z,60.04
2022-12-03T19:22:43.097Z,59.90
2022-12-03T19:25:09.924Z,59.83
2022-12-03T19:27:36.691Z,60.37
2022-12-03T19:30:04.204Z,60.18
2022-12-03T19:32:30.917Z,60.03
2022-12-03T19:34:57.705Z,60.23
2022-12-03T19:37:24.347Z,60.18
2022-12-03T19:39:53.781Z,60.16
2022-12-03T19:42:20.720Z,59.88
2022-12-03T19:44:47.394Z,59.76
2022-12-03T19:47:14.112Z,60.10
2022-12-03T19:49:40.794Z,60.04
2022-12-03T19:52:07.460Z,59.90
2022-12-03T19:54:34.105Z,60.00
2022-12-03T19:57:00.867Z,60.04
2022-12-03T19:59:27.621Z,59.72
2022-12-03T20:01:54.487Z,60.03
2022-12-03T20:04:21.124Z,60.32
2022-12-03T20:06:48.549Z,60.14
2022-12-03T20:09:17.758Z,60.30
2022-12-03T20:11:45.926Z,60.04
2022-12-03T20:14:15.356Z,60.04
2022-12-03T20:16:43.322Z,60.28
2022-12-03T20:19:12.816Z,60.06
2022-12-03T20:21:40.281Z,60.19
2022-12-03T20:24:15.036Z,59.91
2022-12-03T20:26:41.832Z,60.31
2022-12-03T20:29:08.843Z,60.07
2022-12-03T20:31:35.664Z,60.34
2022-12-03T20:34:04.021Z,59.99
2022-12-03T20:36:31.911Z,60.23
2022-12-03T20:39:01.521Z,60.31
2022-12-03T20:41:28.597Z,60.25
2022-12-03T20:43:56.004Z,60.37
2022-12-03T20:46:28.796Z,60.35
2022-12-03T20:48:56.388Z,60.16
2022-12-03T20:51:29.660Z,60.20
2022-12-03T20:53:57.455Z,60.18
2022-12-03T20:56:31.269Z,60.33
2022-12-03T20:59:04.843Z,60.26
2022-12-03T21:01:31.781Z,60.31
2022-12-03T21:03:58.626Z,60.26
2022-12-03T21:06:30.794Z,60.11
2022-12-03T21:08:59.085Z,60.16
2022-12-03T21:11:29.703Z,60.27
2022-12-03T21:13:57.051Z,60.31
2022-12-03T21:16:52.534Z,60.33
2022-12-03T21:19:17.538Z,60.02
2022-12-03T21:21:44.165Z,59.89
2022-12-03T21:24:11.680Z,60.25
2022-12-03T21:26:38.584Z,60.01
2022-12-03T21:29:05.369Z,60.10
2022-12-03T21:31:32.565Z,60.08
2022-12-03T21:33:59.332Z,60.22
2022-12-03T21:36:26.084Z,59.98
2022-12-03T21:38:52.755Z,60.16
2022-12-03T21:41:19.498Z,60.16
2022-12-03T21:43:46.254Z,59.99
2022-12-03T21:47:08.101Z,59.83
2022-12-03T21:49:04.012Z,60.31
2022-12-03T21:51:30.809Z,60.31
2022-12-03T21:53:57.570Z,60.35
2022-12-03T21:56:24.498Z,60.07
2022-12-03T21:58:51.291Z,59.94
2022-12-03T22:01:21.725Z,60.21
2022-12-03T22:03:48.922Z,60.21
2022-12-03T22:06:16.661Z,60.38
2022-12-03T22:08:43.702Z,60.14
2022-12-03T22:11:13.335Z,60.30
2022-12-03T22:13:40.819Z,60.37
2022-12-03T22:16:11.395Z,60.17
2022-12-03T22:18:39.056Z,60.08
2022-12-03T22:21:07.482Z,60.07
2022-12-03T22:23:34.740Z,59.83
2022-12-03T22:26:04.914Z,59.93
2022-12-03T22:28:32.699Z,58.88
2022-12-03T22:30:59.685Z,58.01
2022-12-03T22:33:26.452Z,57.70
2022-12-03T22:36:01.553Z,57.37
2022-12-03T22:38:30.165Z,57.28
2022-12-03T22:40:57.384Z,57.01
2022-12-03T22:43:24.597Z,56.88
2022-12-03T22:45:55.567Z,56.77
2022-12-03T22:48:24.002Z,56.68
2022-12-03T22:50:52.524Z,56.41
2022-12-03T22:53:19.913Z,56.42
2022-12-03T22:55:55.076Z,56.29
2022-12-03T22:58:21.790Z,56.15
2022-12-03T23:00:48.436Z,56.00
2022-12-03T23:03:15.263Z,55.84
2022-12-03T23:05:42.165Z,56.49
2022-12-03T23:08:12.027Z,57.44
2022-12-03T23:10:41.632Z,58.34
2022-12-03T23:13:09.517Z,59.02
2022-12-03T23:15:36.569Z,58.92
2022-12-03T23:18:03.546Z,59.24
2022-12-03T23:20:30.190Z,58.91
2022-12-03T23:22:56.715Z,59.34
2022-12-03T23:25:23.380Z,59.66
2022-12-03T23:27:50.133Z,59.63
2022-12-03T23:30:17.121Z,59.74
2022-12-03T23:32:44.472Z,59.60
2022-12-03T23:35:12.281Z,59.69
2022-12-03T23:37:38.983Z,59.63
2022-12-03T23:40:06.459Z,59.74
2022-12-03T23:42:33.142Z,59.53
2022-12-03T23:44:59.827Z,59.76
2022-12-03T23:47:26.465Z,59.61
2022-12-03T23:49:53.499Z,59.73
2022-12-03T23:52:20.528Z,59.54
2022-12-03T23:54:47.301Z,59.67
2022-12-03T23:57:14.095Z,59.67
2022-12-03T23:59:42.073Z,59.61
